createdAt,value
2023-02-23T00:02:06.561Z,23.80
2023-02-23T00:04:34.484Z,21.75
2023-02-23T00:07:01.403Z,28.42
2023-02-23T00:09:35.304Z,25.17
2023-02-23T00:12:08.229Z,28.75
2023-02-23T00:14:37.731Z,25.48
2023-02-23T00:17:05.424Z,25.30
2023-02-23T00:19:33.605Z,28.80
2023-02-23T00:22:01.275Z,26.75
2023-02-23T00:24:28.101Z,31.20
2023-02-23T00:26:55.185Z,26.27
2023-02-23T00:29:24.813Z,29.83
2023-02-23T00:31:52.308Z,24.85
2023-02-23T00:34:21.288Z,29.05
2023-02-23T00:36:51.568Z,24.10
2023-02-23T00:39:29.433Z,25.02
2023-02-23T00:42:05.097Z,27.73
2023-02-23T00:44:35.374Z,29.65
2023-02-23T00:47:02.656Z,26.98
2023-02-23T00:49:29.521Z,27.65
2023-02-23T00:51:56.319Z,26.83
2023-02-23T00:54:23.143Z,26.55
2023-02-23T00:56:50.554Z,24.35
2023-02-23T00:59:18.429Z,27.70
2023-02-23T01:01:45.669Z,24.65
2023-02-23T01:04:13.732Z,27.33
2023-02-23T01:06:41.679Z,26.48
2023-02-23T01:09:11.080Z,26.70
2023-02-23T01:11:37.979Z,29.10
2023-02-23T01:14:05.269Z,27.85
2023-02-23T01:16:33.789Z,28.60
2023-02-23T01:19:04.194Z,28.52
2023-02-23T01:21:37.271Z,28.30
2023-02-23T01:24:05.279Z,28.92
2023-02-23T01:26:37.809Z,29.92
2023-02-23T01:29:10.619Z,27.33
2023-02-23T01:31:40.187Z,33.80
2023-02-23T01:34:08.044Z,31.67
2023-02-23T01:36:37.285Z,28.67
2023-02-23T01:39:07.702Z,28.75
2023-02-23T01:41:36.883Z,33.58
2023-02-23T01:44:06.469Z,27.52
2023-02-23T01:46:35.975Z,26.27
2023-02-23T01:49:04.566Z,29.20
2023-02-23T01:51:37.909Z,31.13
2023-02-23T01:54:10.847Z,28.73
2023-02-23T01:56:44.332Z,28.75
2023-02-23T01:59:15.397Z,29.25
2023-02-23T02:01:43.675Z,27.00
2023-02-23T02:04:16.598Z,25.10
2023-02-23T02:06:46.163Z,24.58
2023-02-23T02:09:17.484Z,26.05
2023-02-23T02:11:46.584Z,27.92
2023-02-23T02:14:21.124Z,27.42
2023-02-23T02:17:30.178Z,29.50
2023-02-23T02:20:38.484Z,27.40
2023-02-23T02:23:23.321Z,30.20
2023-02-23T02:26:03.903Z,29.90
2023-02-23T02:28:54.765Z,30.02
2023-02-23T02:31:44.496Z,28.50
2023-02-23T02:34:26.023Z,28.10
2023-02-23T02:37:07.768Z,20.23
2023-02-23T02:40:18.520Z,29.38
2023-02-23T02:43:13.141Z,29.70
2023-02-23T02:46:28.947Z,27.15
2023-02-23T02:49:32.706Z,29.25
2023-02-23T02:52:08.255Z,30.98
2023-02-23T02:54:38.099Z,24.98
2023-02-23T02:57:06.814Z,29.55
2023-02-23T03:00:05.762Z,30.98
2023-02-23T03:02:54.801Z,25.65
2023-02-23T03:05:46.126Z,26.05
2023-02-23T03:08:57.931Z,26.05
2023-02-23T03:11:58.487Z,29.88
2023-02-23T03:15:05.356Z,26.15
2023-02-23T03:18:21.695Z,27.85
2023-02-23T03:21:12.799Z,27.23
2023-02-23T03:24:20.699Z,29.00
2023-02-23T03:27:20.837Z,29.10
2023-02-23T03:30:17.085Z,32.88
2023-02-23T03:33:11.156Z,27.98
2023-02-23T03:36:16.217Z,27.17
2023-02-23T03:39:33.871Z,29.08
2023-02-23T03:42:23.035Z,32.42
2023-02-23T03:45:10.834Z,29.67
2023-02-23T03:47:59.208Z,25.38
2023-02-23T03:50:57.830Z,29.42
2023-02-23T03:53:49.988Z,28.65
2023-02-23T03:56:37.596Z,29.63
2023-02-23T03:59:25.773Z,32.00
2023-02-23T04:02:14.379Z,28.30
2023-02-23T04:05:02.476Z,32.03
2023-02-23T04:10:24.702Z,30.30
2023-02-23T04:13:14.953Z,32.08
2023-02-23T04:15:44.066Z,32.72
2023-02-23T04:18:14.988Z,31.10
2023-02-23T04:20:42.101Z,32.13
2023-02-23T04:23:08.928Z,37.40
2023-02-23T04:25:35.801Z,31.13
2023-02-23T04:28:03.482Z,32.88
2023-02-23T04:30:30.461Z,28.17
2023-02-23T04:32:59.171Z,30.13
2023-02-23T04:35:28.073Z,32.13
2023-02-23T04:37:55.021Z,27.83
2023-02-23T04:40:24.227Z,31.73
2023-02-23T04:42:51.261Z,32.75
2023-02-23T04:45:18.328Z,38.30
2023-02-23T04:47:45.259Z,25.60
2023-02-23T04:50:12.974Z,28.10
2023-02-23T04:52:40.237Z,28.40
2023-02-23T04:55:08.427Z,32.15
2023-02-23T04:57:35.729Z,31.35
2023-02-23T05:00:04.399Z,35.10
2023-02-23T05:02:32.144Z,32.90
2023-02-23T05:04:59.090Z,36.10
2023-02-23T05:07:26.073Z,36.13
2023-02-23T05:09:52.845Z,30.48
2023-02-23T05:12:19.907Z,36.50
2023-02-23T05:14:46.765Z,32.47
2023-02-23T05:17:13.578Z,28.73
2023-02-23T05:19:40.344Z,30.58
2023-02-23T05:22:07.304Z,37.25
2023-02-23T05:24:34.074Z,34.30
2023-02-23T05:27:00.811Z,30.50
2023-02-23T05:29:27.562Z,32.28
2023-02-23T05:31:54.402Z,32.70
2023-02-23T05:34:21.375Z,33.65
2023-02-23T05:36:48.174Z,41.38
2023-02-23T05:39:14.974Z,34.53
2023-02-23T05:41:41.750Z,36.17
2023-02-23T05:44:08.473Z,32.33
2023-02-23T05:46:35.965Z,34.22
2023-02-23T05:49:03.195Z,31.65
2023-02-23T05:51:32.276Z,35.17
2023-02-23T05:53:59.054Z,36.15
2023-02-23T05:56:25.890Z,34.67
2023-02-23T05:58:57.978Z,38.95
2023-02-23T06:03:52.312Z,31.58
2023-02-23T06:06:19.507Z,32.60
2023-02-23T06:08:46.548Z,39.10
2023-02-23T06:11:13.712Z,38.15
2023-02-23T06:13:41.244Z,38.38
2023-02-23T06:16:08.720Z,33.92
2023-02-23T06:18:35.731Z,32.97
2023-02-23T06:21:03.967Z,37.13
2023-02-23T06:23:31.820Z,33.13
2023-02-23T06:25:59.883Z,35.35
2023-02-23T06:28:27.798Z,36.42
2023-02-23T06:30:55.756Z,36.60
2023-02-23T06:33:23.009Z,32.13
2023-02-23T06:35:50.049Z,32.55
2023-02-23T06:38:17.182Z,31.38
2023-02-23T06:40:44.067Z,32.80
2023-02-23T06:43:11.304Z,33.88
2023-02-23T06:45:38.435Z,31.20
2023-02-23T06:48:05.433Z,33.88
2023-02-23T06:50:32.249Z,41.08
2023-02-23T06:53:01.886Z,33.25
2023-02-23T06:55:28.665Z,37.08
2023-02-23T06:57:55.435Z,31.80
2023-02-23T07:00:22.768Z,35.47
2023-02-23T07:02:49.573Z,35.72
2023-02-23T07:05:16.364Z,31.85
2023-02-23T07:07:43.339Z,31.55
2023-02-23T07:10:10.998Z,32.70
2023-02-23T07:12:37.760Z,31.58
2023-02-23T07:15:05.151Z,33.33
2023-02-23T07:17:31.966Z,31.58
2023-02-23T07:19:58.717Z,29.75
2023-02-23T07:22:33.584Z,32.08
2023-02-23T07:25:00.473Z,27.52
2023-02-23T07:27:29.698Z,28.25
2023-02-23T07:29:56.509Z,30.15
2023-02-23T07:32:23.552Z,33.38
2023-02-23T07:34:52.145Z,29.95
2023-02-23T07:37:20.233Z,29.02
2023-02-23T07:39:47.478Z,29.40
2023-02-23T07:42:14.213Z,31.17
2023-02-23T07:44:41.039Z,28.35
2023-02-23T07:47:07.819Z,34.20
2023-02-23T07:49:34.782Z,30.83
2023-02-23T07:52:01.644Z,30.85
2023-02-23T07:54:28.478Z,33.15
2023-02-23T07:56:55.330Z,33.25
2023-02-23T07:59:22.233Z,28.40
2023-02-23T08:01:49.098Z,30.05
2023-02-23T08:04:15.828Z,28.52
2023-02-23T08:06:42.588Z,28.10
2023-02-23T08:09:10.662Z,30.92
2023-02-23T08:11:37.547Z,27.88
2023-02-23T08:14:04.274Z,28.27
2023-02-23T08:16:33.353Z,27.88
2023-02-23T08:19:01.031Z,26.73
2023-02-23T08:21:29.477Z,28.77
2023-02-23T08:23:57.813Z,30.23
2023-02-23T08:26:25.644Z,27.13
2023-02-23T08:28:53.470Z,26.50
2023-02-23T08:31:24.473Z,27.38
2023-02-23T08:33:51.821Z,29.95
2023-02-23T08:36:20.787Z,30.58
2023-02-23T08:38:48.139Z,26.33
2023-02-23T08:41:15.200Z,29.10
2023-02-23T08:43:42.116Z,24.92
2023-02-23T08:46:09.472Z,23.25
2023-02-23T08:48:36.265Z,23.35
2023-02-23T08:51:03.025Z,22.63
2023-02-23T08:53:30.822Z,24.77
2023-02-23T08:56:02.960Z,24.67
2023-02-23T09:00:58.693Z,18.02
2023-02-23T09:03:26.401Z,22.70
2023-02-23T09:05:53.536Z,18.40
2023-02-23T09:08:21.390Z,18.83
2023-02-23T09:10:48.175Z,18.17
2023-02-23T09:13:15.844Z,19.08
2023-02-23T09:15:43.759Z,19.00
2023-02-23T09:18:13.860Z,19.02
2023-02-23T09:20:45.121Z,20.30
2023-02-23T09:23:12.782Z,16.63
2023-02-23T09:25:44.117Z,18.98
2023-02-23T09:28:19.544Z,16.83
2023-02-23T09:30:47.229Z,16.67
2023-02-23T09:33:14.416Z,16.98
2023-02-23T09:35:41.517Z,16.48
2023-02-23T09:38:09.321Z,15.73
2023-02-23T09:40:53.273Z,15.43
2023-02-23T09:43:29.228Z,17.25
2023-02-23T09:46:34.832Z,18.42
2023-02-23T09:49:04.024Z,15.45
2023-02-23T09:51:35.381Z,16.33
2023-02-23T09:54:03.233Z,17.05
2023-02-23T09:56:43.528Z,16.25
2023-02-23T09:59:15.747Z,13.45
2023-02-23T10:01:48.337Z,15.35
2023-02-23T10:04:17.854Z,12.75
2023-02-23T10:06:49.482Z,14.65
2023-02-23T10:09:57.620Z,14.07
2023-02-23T10:12:38.313Z,12.70
2023-02-23T10:15:27.939Z,15.48
2023-02-23T10:18:46.941Z,16.75
2023-02-23T10:21:23.578Z,13.30
2023-02-23T10:24:11.575Z,12.63
2023-02-23T10:26:46.792Z,13.80
2023-02-23T10:29:28.180Z,13.32
2023-02-23T10:32:02.500Z,12.52
2023-02-23T10:34:30.780Z,11.38
2023-02-23T10:37:02.819Z,12.35
2023-02-23T10:42:05.675Z,10.60
2023-02-23T10:44:32.722Z,14.40
2023-02-23T10:47:08.600Z,9.77
2023-02-23T10:49:47.448Z,13.18
2023-02-23T10:52:18.821Z,12.40
2023-02-23T10:54:50.868Z,11.88
2023-02-23T11:00:16.300Z,12.80
2023-02-23T11:02:45.044Z,9.65
2023-02-23T11:05:45.564Z,13.15
2023-02-23T11:08:20.064Z,13.48
2023-02-23T11:11:04.344Z,10.15
2023-02-23T11:13:44.427Z,10.40
2023-02-23T11:16:23.569Z,10.43
2023-02-23T11:19:02.067Z,13.32
2023-02-23T11:21:38.918Z,10.75
2023-02-23T11:24:27.041Z,13.98
2023-02-23T11:27:00.385Z,10.00
2023-02-23T11:29:35.194Z,10.75
2023-02-23T11:32:23.955Z,8.80
2023-02-23T11:35:27.023Z,11.30
2023-02-23T11:37:55.002Z,9.82
2023-02-23T11:40:29.182Z,11.02
2023-02-23T11:43:14.189Z,10.13
2023-02-23T11:45:47.969Z,8.43
2023-02-23T11:48:33.677Z,10.50
2023-02-23T11:51:01.355Z,7.68
2023-02-23T11:53:40.115Z,10.02
2023-02-23T11:56:13.735Z,11.95
2023-02-23T11:58:57.702Z,8.32
2023-02-23T12:01:36.145Z,8.25
2023-02-23T12:04:03.214Z,10.35
2023-02-23T12:06:39.109Z,7.80
2023-02-23T12:09:41.830Z,6.57
2023-02-23T12:12:18.790Z,6.95
2023-02-23T12:14:51.965Z,8.45
2023-02-23T12:17:30.012Z,7.72
2023-02-23T12:20:21.458Z,6.55
2023-02-23T12:23:10.334Z,10.03
2023-02-23T12:25:44.882Z,7.90
2023-02-23T12:28:36.582Z,5.57
2023-02-23T12:31:28.505Z,6.20
2023-02-23T12:34:12.930Z,7.25
2023-02-23T12:36:55.753Z,8.65
2023-02-23T12:39:32.764Z,11.90
2023-02-23T12:42:34.080Z,8.43
2023-02-23T12:45:04.129Z,7.85
2023-02-23T12:47:57.356Z,6.93
2023-02-23T12:50:34.614Z,9.23
2023-02-23T12:53:32.099Z,8.23
2023-02-23T12:56:12.412Z,6.90
2023-02-23T12:59:07.905Z,6.78
2023-02-23T13:02:12.682Z,11.75
2023-02-23T13:05:13.091Z,6.88
2023-02-23T13:07:52.777Z,10.57
2023-02-23T13:10:33.412Z,7.45
2023-02-23T13:13:35.437Z,8.32
2023-02-23T13:16:08.358Z,8.65
2023-02-23T13:19:01.731Z,12.00
2023-02-23T13:21:37.061Z,12.77
2023-02-23T13:24:11.243Z,8.63
2023-02-23T13:26:50.079Z,6.50
2023-02-23T13:29:16.841Z,7.13
2023-02-23T13:31:44.977Z,7.68
2023-02-23T13:34:21.460Z,7.43
2023-02-23T13:36:50.541Z,6.28
2023-02-23T13:39:26.006Z,4.78
2023-02-23T13:42:15.923Z,3.53
2023-02-23T13:44:54.897Z,6.18
2023-02-23T13:47:40.192Z,4.50
2023-02-23T13:50:17.742Z,5.75
2023-02-23T13:52:46.432Z,5.80
2023-02-23T13:55:34.764Z,5.82
2023-02-23T13:58:16.248Z,5.63
2023-02-23T14:00:44.089Z,7.05
2023-02-23T14:03:24.548Z,7.03
2023-02-23T14:05:57.344Z,5.53
2023-02-23T14:08:33.232Z,5.82
2023-02-23T14:11:00.355Z,6.07
2023-02-23T14:13:33.711Z,6.20
2023-02-23T14:16:19.543Z,6.28
2023-02-23T14:19:34.750Z,8.02
2023-02-23T14:22:10.592Z,6.15
2023-02-23T14:24:37.469Z,5.47
2023-02-23T14:27:40.244Z,6.43
2023-02-23T14:30:10.591Z,5.78
2023-02-23T14:32:45.530Z,8.20
2023-02-23T14:35:32.749Z,5.43
2023-02-23T14:38:12.640Z,8.70
2023-02-23T14:40:47.053Z,8.57
2023-02-23T14:43:32.248Z,8.20
2023-02-23T14:46:00.738Z,5.53
2023-02-23T14:48:28.761Z,7.93
2023-02-23T14:51:16.979Z,6.90
2023-02-23T14:53:43.928Z,6.97
2023-02-23T14:56:32.531Z,7.28
2023-02-23T14:59:07.695Z,7.80
2023-02-23T15:01:39.598Z,5.80
2023-02-23T15:09:38.160Z,5.10
2023-02-23T15:12:29.700Z,6.50
2023-02-23T15:15:00.016Z,7.55
2023-02-23T15:17:31.917Z,8.88
2023-02-23T15:20:15.189Z,8.65
2023-02-23T15:22:47.969Z,6.18
2023-02-23T15:25:26.187Z,7.00
2023-02-23T15:27:53.424Z,8.43
2023-02-23T15:30:26.584Z,7.10
2023-02-23T15:33:12.952Z,8.75
2023-02-23T15:36:08.147Z,6.45
2023-02-23T15:38:46.261Z,12.77
2023-02-23T15:41:37.450Z,6.75
2023-02-23T15:44:10.315Z,8.25
2023-02-23T15:46:38.539Z,5.38
2023-02-23T15:49:06.943Z,10.32
2023-02-23T15:51:50.398Z,9.27
2023-02-23T15:54:22.493Z,7.05
2023-02-23T15:56:57.193Z,7.20
2023-02-23T15:59:30.948Z,6.50
2023-02-23T16:02:00.302Z,9.02
2023-02-23T16:04:32.734Z,10.35
2023-02-23T16:07:16.378Z,12.38
2023-02-23T16:10:18.034Z,10.45
2023-02-23T16:12:49.854Z,8.83
2023-02-23T16:15:28.667Z,9.30
2023-02-23T16:18:04.860Z,8.93
2023-02-23T16:20:38.273Z,9.77
2023-02-23T16:23:06.687Z,10.13
2023-02-23T16:25:34.452Z,11.90
2023-02-23T16:28:17.051Z,14.27
2023-02-23T16:31:05.192Z,11.25
2023-02-23T16:33:51.022Z,8.65
2023-02-23T16:36:36.704Z,10.05
2023-02-23T16:39:10.479Z,9.80
2023-02-23T16:41:37.358Z,10.60
2023-02-23T16:44:07.079Z,12.23
2023-02-23T16:46:53.765Z,10.02
2023-02-23T16:49:23.330Z,9.52
2023-02-23T16:51:51.283Z,10.60
2023-02-23T16:54:18.149Z,9.63
2023-02-23T16:56:46.412Z,10.88
2023-02-23T16:59:17.472Z,16.65
2023-02-23T17:01:49.910Z,15.00
2023-02-23T17:04:19.387Z,20.10
2023-02-23T17:06:52.858Z,18.80
2023-02-23T17:09:19.720Z,16.92
2023-02-23T17:11:47.170Z,13.32
2023-02-23T17:14:25.117Z,14.20
2023-02-23T17:16:52.086Z,15.95
2023-02-23T17:19:19.164Z,14.95
2023-02-23T17:21:46.664Z,15.13
2023-02-23T17:24:13.469Z,15.20
2023-02-23T17:26:42.111Z,14.32
2023-02-23T17:29:09.231Z,15.85
2023-02-23T17:31:38.071Z,16.92
2023-02-23T17:34:05.108Z,22.73
2023-02-23T17:36:31.879Z,18.75
2023-02-23T17:38:58.883Z,22.55
2023-02-23T17:41:27.123Z,18.73
2023-02-23T17:43:54.101Z,23.52
2023-02-23T17:46:21.403Z,22.60
2023-02-23T17:48:48.204Z,24.52
2023-02-23T17:51:16.945Z,24.02
2023-02-23T17:53:44.016Z,24.00
2023-02-23T17:56:11.193Z,16.50
2023-02-23T17:58:38.387Z,21.33
2023-02-23T18:01:07.290Z,16.98
2023-02-23T18:03:36.495Z,19.75
2023-02-23T18:06:12.006Z,18.63
2023-02-23T18:08:40.191Z,25.00
2023-02-23T18:11:06.968Z,29.73
2023-02-23T18:13:34.529Z,24.40
2023-02-23T18:16:09.415Z,22.33
2023-02-23T18:18:39.172Z,18.85
2023-02-23T18:21:14.559Z,18.30
2023-02-23T18:23:41.392Z,17.63
2023-02-23T18:26:14.741Z,18.65
2023-02-23T18:28:44.421Z,24.27
2023-02-23T18:31:21.271Z,19.05
2023-02-23T18:33:55.301Z,17.17
2023-02-23T18:36:23.765Z,16.75
2023-02-23T18:38:50.734Z,19.63
2023-02-23T18:41:17.861Z,16.92
2023-02-23T18:43:45.184Z,16.15
2023-02-23T18:46:13.909Z,18.15
2023-02-23T18:48:41.695Z,18.80
2023-02-23T18:51:12.422Z,19.08
2023-02-23T18:53:39.243Z,15.48
2023-02-23T18:56:12.802Z,20.20
2023-02-23T18:58:39.566Z,17.02
2023-02-23T19:01:23.262Z,14.80
2023-02-23T19:03:52.304Z,16.83
2023-02-23T19:06:21.166Z,17.77
2023-02-23T19:08:54.151Z,19.65
2023-02-23T19:11:27.341Z,25.40
2023-02-23T19:13:56.524Z,17.60
2023-02-23T19:16:26.045Z,12.25
2023-02-23T19:18:53.132Z,18.45
2023-02-23T19:21:23.649Z,17.15
2023-02-23T19:23:57.609Z,17.05
2023-02-23T19:26:25.889Z,26.23
2023-02-23T19:28:52.828Z,23.75
2023-02-23T19:31:21.343Z,21.27
2023-02-23T19:33:49.949Z,25.33
2023-02-23T19:36:19.293Z,22.35
2023-02-23T19:38:46.207Z,21.50
2023-02-23T19:41:17.033Z,24.05
2023-02-23T19:43:44.241Z,22.67
2023-02-23T19:46:17.213Z,29.13
2023-02-23T19:48:48.588Z,18.45
2023-02-23T19:51:15.533Z,17.23
2023-02-23T19:53:42.333Z,16.85
2023-02-23T19:56:12.779Z,12.55
2023-02-23T19:58:43.083Z,11.90
2023-02-23T20:01:11.238Z,14.00
2023-02-23T20:03:39.612Z,16.08
2023-02-23T20:06:07.081Z,18.92
2023-02-23T20:08:34.129Z,21.75
2023-02-23T20:11:00.881Z,22.23
2023-02-23T20:13:27.672Z,23.20
2023-02-23T20:16:04.360Z,26.27
2023-02-23T20:18:33.543Z,22.75
2023-02-23T20:21:00.265Z,23.55
2023-02-23T20:23:26.997Z,26.63
2023-02-23T20:25:53.708Z,28.80
2023-02-23T20:28:20.464Z,22.95
2023-02-23T20:30:48.142Z,26.05
2023-02-23T20:33:15.268Z,27.17
2023-02-23T20:35:42.540Z,27.83
2023-02-23T20:38:10.002Z,25.83
2023-02-23T20:40:37.110Z,24.60
2023-02-23T20:43:03.897Z,22.23
2023-02-23T20:45:30.597Z,21.55
2023-02-23T20:47:57.405Z,23.52
2023-02-23T20:50:28.494Z,23.48
2023-02-23T20:52:56.138Z,22.90
2023-02-23T20:55:26.355Z,22.15
2023-02-23T20:57:53.363Z,21.00
2023-02-23T21:00:23.042Z,25.08
2023-02-23T21:02:55.539Z,18.70
2023-02-23T21:05:24.943Z,21.75
2023-02-23T21:07:51.877Z,17.63
2023-02-23T21:10:20.468Z,27.13
2023-02-23T21:12:47.254Z,14.73
2023-02-23T21:15:14.826Z,16.13
2023-02-23T21:17:42.311Z,17.27
2023-02-23T21:20:13.077Z,16.50
2023-02-23T21:22:40.216Z,17.85
2023-02-23T21:25:10.710Z,16.77
2023-02-23T21:27:38.645Z,17.67
2023-02-23T21:30:06.400Z,15.18
2023-02-23T21:32:37.082Z,22.27
2023-02-23T21:35:04.165Z,19.63
2023-02-23T21:37:30.879Z,18.27
2023-02-23T21:39:57.592Z,21.02
2023-02-23T21:42:24.330Z,18.52
2023-02-23T21:44:51.180Z,20.08
2023-02-23T21:47:17.908Z,19.42
2023-02-23T21:49:49.179Z,21.20
2023-02-23T21:52:17.388Z,18.08
2023-02-23T21:54:49.942Z,19.73
2023-02-23T21:57:17.121Z,22.98
2023-02-23T21:59:43.862Z,21.50
2023-02-23T22:02:11.914Z,24.08
2023-02-23T22:04:40.111Z,20.20
2023-02-23T22:07:08.187Z,20.17
2023-02-23T22:09:35.671Z,22.73
2023-02-23T22:12:02.452Z,18.65
2023-02-23T22:14:29.176Z,20.13
2023-02-23T22:16:55.930Z,21.42
2023-02-23T22:19:22.868Z,19.23
2023-02-23T22:21:49.732Z,19.38
2023-02-23T22:24:16.976Z,22.63
2023-02-23T22:26:55.383Z,19.88
2023-02-23T22:29:24.745Z,18.10
2023-02-23T22:31:52.039Z,19.70
2023-02-23T22:34:19.003Z,17.08
2023-02-23T22:36:48.391Z,18.17
2023-02-23T22:39:18.326Z,19.52
2023-02-23T22:41:46.818Z,17.48
2023-02-23T22:44:21.158Z,19.50
2023-02-23T22:46:49.725Z,20.67
2023-02-23T22:49:19.935Z,19.52
2023-02-23T22:51:47.520Z,20.48
2023-02-23T22:54:14.591Z,18.90
2023-02-23T22:56:42.356Z,20.02
2023-02-23T22:59:10.982Z,19.58
2023-02-23T23:01:39.446Z,19.20
2023-02-23T23:04:10.413Z,19.85
2023-02-23T23:06:40.112Z,11.45
2023-02-23T23:09:08.973Z,14.73
2023-02-23T23:11:36.709Z,17.20
2023-02-23T23:14:07.020Z,18.02
2023-02-23T23:16:35.853Z,19.17
2023-02-23T23:19:12.047Z,17.48
2023-02-23T23:21:41.156Z,17.45
2023-02-23T23:24:09.031Z,17.25
2023-02-23T23:26:40.727Z,17.23
2023-02-23T23:29:11.356Z,18.85
2023-02-23T23:31:39.735Z,18.05
2023-02-23T23:34:10.248Z,16.10
2023-02-23T23:36:43.356Z,20.85
2023-02-23T23:39:16.130Z,21.00
2023-02-23T23:41:44.637Z,17.73
2023-02-23T23:44:13.369Z,19.10
2023-02-23T23:46:43.377Z,20.75
2023-02-23T23:49:14.858Z,19.63
2023-02-23T23:51:50.043Z,19.45
2023-02-23T23:54:23.565Z,22.95
2023-02-23T23:56:51.252Z,19.17
2023-02-23T23:59:21.518Z,20.63
